sensor_id;sensor_type;location;lat;lon;timestamp;P1;durP1;ratioP1;P2;durP2;ratioP2
14187;SDS011;7175;51.978;5.330;2023-02-28T00:00:40;26.27;;;24.37;;
14187;SDS011;7175;51.978;5.330;2023-02-28T00:03:10;25.47;;;23.63;;
14187;SDS011;7175;51.978;5.330;2023-02-28T00:05:39;25.57;;;23.77;;
14187;SDS011;7175;51.978;5.330;2023-02-28T00:08:08;26.47;;;24.57;;
14187;SDS011;7175;51.978;5.330;2023-02-28T00:10:37;26.20;;;24.30;;
14187;SDS011;7175;51.978;5.330;2023-02-28T00:13:06;26.10;;;24.20;;
14187;SDS011;7175;51.978;5.330;2023-02-28T00:15:34;28.37;;;26.33;;
14187;SDS011;7175;51.978;5.330;2023-02-28T00:18:02;26.87;;;24.97;;
14187;SDS011;7175;51.978;5.330;2023-02-28T00:20:30;26.97;;;25.07;;
14187;SDS011;7175;51.978;5.330;2023-02-28T00:23:00;26.60;;;24.70;;
14187;SDS011;7175;51.978;5.330;2023-02-28T00:25:28;26.30;;;24.40;;
14187;SDS011;7175;51.978;5.330;2023-02-28T00:27:56;27.50;;;25.50;;
14187;SDS011;7175;51.978;5.330;2023-02-28T00:30:24;27.03;;;25.03;;
14187;SDS011;7175;51.978;5.330;2023-02-28T00:32:52;27.17;;;25.17;;
14187;SDS011;7175;51.978;5.330;2023-02-28T00:35:22;28.50;;;26.50;;
14187;SDS011;7175;51.978;5.330;2023-02-28T00:37:50;29.83;;;27.73;;
14187;SDS011;7175;51.978;5.330;2023-02-28T00:40:19;29.67;;;27.57;;
14187;SDS011;7175;51.978;5.330;2023-02-28T00:42:47;30.53;;;28.33;;
14187;SDS011;7175;51.978;5.330;2023-02-28T00:45:15;29.80;;;27.70;;
14187;SDS011;7175;51.978;5.330;2023-02-28T00:47:44;30.20;;;28.10;;
14187;SDS011;7175;51.978;5.330;2023-02-28T00:50:13;30.70;;;28.60;;
14187;SDS011;7175;51.978;5.330;2023-02-28T00:52:41;30.83;;;28.63;;
14187;SDS011;7175;51.978;5.330;2023-02-28T00:55:09;32.00;;;29.80;;
14187;SDS011;7175;51.978;5.330;2023-02-28T00:57:38;31.70;;;29.50;;
14187;SDS011;7175;51.978;5.330;2023-02-28T01:00:07;32.53;;;30.33;;
14187;SDS011;7175;51.978;5.330;2023-02-28T01:02:36;33.63;;;31.33;;
14187;SDS011;7175;51.978;5.330;2023-02-28T01:05:04;34.70;;;32.40;;
14187;SDS011;7175;51.978;5.330;2023-02-28T01:07:33;34.63;;;32.33;;
14187;SDS011;7175;51.978;5.330;2023-02-28T01:10:01;36.20;;;33.80;;
14187;SDS011;7175;51.978;5.330;2023-02-28T01:12:29;38.33;;;35.83;;
14187;SDS011;7175;51.978;5.330;2023-02-28T01:14:58;39.27;;;36.77;;
14187;SDS011;7175;51.978;5.330;2023-02-28T01:17:27;39.87;;;37.33;;
14187;SDS011;7175;51.978;5.330;2023-02-28T01:19:55;43.00;;;40.30;;
14187;SDS011;7175;51.978;5.330;2023-02-28T01:22:23;43.33;;;40.63;;
14187;SDS011;7175;51.978;5.330;2023-02-28T01:24:51;43.37;;;40.67;;
14187;SDS011;7175;51.978;5.330;2023-02-28T01:27:19;43.50;;;40.80;;
14187;SDS011;7175;51.978;5.330;2023-02-28T01:29:47;44.50;;;41.70;;
14187;SDS011;7175;51.978;5.330;2023-02-28T01:32:16;45.43;;;42.63;;
14187;SDS011;7175;51.978;5.330;2023-02-28T01:34:45;45.63;;;42.83;;
14187;SDS011;7175;51.978;5.330;2023-02-28T01:37:14;48.33;;;45.37;;
14187;SDS011;7175;51.978;5.330;2023-02-28T01:39:42;48.00;;;45.07;;
14187;SDS011;7175;51.978;5.330;2023-02-28T01:42:10;48.80;;;45.80;;
14187;SDS011;7175;51.978;5.330;2023-02-28T01:44:58;50.30;;;47.20;;
14187;SDS011;7175;51.978;5.330;2023-02-28T01:47:33;49.57;;;46.57;;
14187;SDS011;7175;51.978;5.330;2023-02-28T01:50:06;49.50;;;46.50;;
14187;SDS011;7175;51.978;5.330;2023-02-28T01:52:39;48.60;;;45.60;;
14187;SDS011;7175;51.978;5.330;2023-02-28T01:55:08;48.80;;;45.80;;
14187;SDS011;7175;51.978;5.330;2023-02-28T01:57:40;49.13;;;46.13;;
14187;SDS011;7175;51.978;5.330;2023-02-28T02:00:13;49.60;;;46.60;;
14187;SDS011;7175;51.978;5.330;2023-02-28T02:02:45;48.67;;;45.67;;
14187;SDS011;7175;51.978;5.330;2023-02-28T02:05:17;47.90;;;44.90;;
14187;SDS011;7175;51.978;5.330;2023-02-28T02:07:48;47.50;;;44.60;;
14187;SDS011;7175;51.978;5.330;2023-02-28T02:10:20;47.30;;;44.40;;
14187;SDS011;7175;51.978;5.330;2023-02-28T02:15:48;46.80;;;43.90;;
14187;SDS011;7175;51.978;5.330;2023-02-28T02:18:25;47.10;;;44.20;;
14187;SDS011;7175;51.978;5.330;2023-02-28T02:30:43;44.53;;;41.73;;
14187;SDS011;7175;51.978;5.330;2023-02-28T02:36:45;44.07;;;41.27;;
14187;SDS011;7175;51.978;5.330;2023-02-28T02:39:19;44.50;;;41.70;;
14187;SDS011;7175;51.978;5.330;2023-02-28T02:41:56;44.00;;;41.20;;
14187;SDS011;7175;51.978;5.330;2023-02-28T02:44:29;42.80;;;40.10;;
14187;SDS011;7175;51.978;5.330;2023-02-28T02:47:05;42.93;;;40.23;;
14187;SDS011;7175;51.978;5.330;2023-02-28T02:49:38;44.87;;;41.97;;
14187;SDS011;7175;51.978;5.330;2023-02-28T02:52:11;43.07;;;40.37;;
14187;SDS011;7175;51.978;5.330;2023-02-28T02:54:43;43.30;;;40.60;;
14187;SDS011;7175;51.978;5.330;2023-02-28T02:57:14;41.73;;;39.03;;
14187;SDS011;7175;51.978;5.330;2023-02-28T02:59:48;42.30;;;39.60;;
14187;SDS011;7175;51.978;5.330;2023-02-28T03:02:20;41.57;;;38.97;;
14187;SDS011;7175;51.978;5.330;2023-02-28T03:04:50;39.97;;;37.37;;
14187;SDS011;7175;51.978;5.330;2023-02-28T03:07:21;38.37;;;35.90;;
14187;SDS011;7175;51.978;5.330;2023-02-28T03:09:50;38.07;;;35.57;;
14187;SDS011;7175;51.978;5.330;2023-02-28T03:12:19;37.57;;;35.17;;
14187;SDS011;7175;51.978;5.330;2023-02-28T03:14:54;38.10;;;35.67;;
14187;SDS011;7175;51.978;5.330;2023-02-28T03:17:30;38.17;;;35.67;;
14187;SDS011;7175;51.978;5.330;2023-02-28T03:20:13;37.33;;;34.93;;
14187;SDS011;7175;51.978;5.330;2023-02-28T03:22:50;39.20;;;36.70;;
14187;SDS011;7175;51.978;5.330;2023-02-28T03:25:29;37.47;;;35.07;;
14187;SDS011;7175;51.978;5.330;2023-02-28T03:28:05;38.90;;;36.40;;
14187;SDS011;7175;51.978;5.330;2023-02-28T03:30:41;37.63;;;35.23;;
14187;SDS011;7175;51.978;5.330;2023-02-28T03:33:14;39.23;;;36.73;;
14187;SDS011;7175;51.978;5.330;2023-02-28T03:35:47;41.30;;;38.70;;
14187;SDS011;7175;51.978;5.330;2023-02-28T03:38:22;42.23;;;39.53;;
14187;SDS011;7175;51.978;5.330;2023-02-28T03:40:57;42.53;;;39.83;;
14187;SDS011;7175;51.978;5.330;2023-02-28T03:43:28;43.10;;;40.40;;
14187;SDS011;7175;51.978;5.330;2023-02-28T03:46:00;45.33;;;42.43;;
14187;SDS011;7175;51.978;5.330;2023-02-28T03:48:35;43.10;;;40.40;;
14187;SDS011;7175;51.978;5.330;2023-02-28T03:51:08;42.13;;;39.43;;
14187;SDS011;7175;51.978;5.330;2023-02-28T03:53:41;42.63;;;39.93;;
14187;SDS011;7175;51.978;5.330;2023-02-28T03:56:13;41.83;;;39.13;;
14187;SDS011;7175;51.978;5.330;2023-02-28T03:58:46;41.53;;;38.93;;
14187;SDS011;7175;51.978;5.330;2023-02-28T04:01:20;40.90;;;38.30;;
14187;SDS011;7175;51.978;5.330;2023-02-28T04:03:51;39.63;;;37.13;;
14187;SDS011;7175;51.978;5.330;2023-02-28T04:06:20;38.70;;;36.20;;
14187;SDS011;7175;51.978;5.330;2023-02-28T04:08:51;38.07;;;35.57;;
14187;SDS011;7175;51.978;5.330;2023-02-28T04:11:20;35.13;;;32.83;;
14187;SDS011;7175;51.978;5.330;2023-02-28T04:13:51;32.30;;;30.10;;
14187;SDS011;7175;51.978;5.330;2023-02-28T04:16:19;29.27;;;27.27;;
14187;SDS011;7175;51.978;5.330;2023-02-28T04:19:00;26.27;;;24.47;;
14187;SDS011;7175;51.978;5.330;2023-02-28T04:21:31;24.17;;;22.47;;
14187;SDS011;7175;51.978;5.330;2023-02-28T04:24:02;23.80;;;22.10;;
14187;SDS011;7175;51.978;5.330;2023-02-28T04:26:31;24.20;;;22.50;;
14187;SDS011;7175;51.978;5.330;2023-02-28T04:29:00;24.07;;;22.37;;
14187;SDS011;7175;51.978;5.330;2023-02-28T04:31:30;24.57;;;22.77;;
14187;SDS011;7175;51.978;5.330;2023-02-28T04:33:59;24.20;;;22.50;;
14187;SDS011;7175;51.978;5.330;2023-02-28T04:36:27;24.70;;;23.00;;
14187;SDS011;7175;51.978;5.330;2023-02-28T04:38:56;24.63;;;22.93;;
14187;SDS011;7175;51.978;5.330;2023-02-28T04:41:25;24.63;;;22.93;;
14187;SDS011;7175;51.978;5.330;2023-02-28T04:43:57;23.23;;;21.63;;
14187;SDS011;7175;51.978;5.330;2023-02-28T04:46:26;23.00;;;21.40;;
14187;SDS011;7175;51.978;5.330;2023-02-28T04:48:54;22.77;;;21.17;;
14187;SDS011;7175;51.978;5.330;2023-02-28T04:51:22;22.80;;;21.20;;
14187;SDS011;7175;51.978;5.330;2023-02-28T04:53:50;22.57;;;20.97;;
14187;SDS011;7175;51.978;5.330;2023-02-28T04:56:18;23.27;;;21.67;;
14187;SDS011;7175;51.978;5.330;2023-02-28T04:58:48;23.87;;;22.17;;
14187;SDS011;7175;51.978;5.330;2023-02-28T05:01:18;22.93;;;21.33;;
14187;SDS011;7175;51.978;5.330;2023-02-28T05:03:49;24.17;;;22.47;;
14187;SDS011;7175;51.978;5.330;2023-02-28T05:06:18;24.80;;;23.00;;
14187;SDS011;7175;51.978;5.330;2023-02-28T05:08:47;23.33;;;21.63;;
14187;SDS011;7175;51.978;5.330;2023-02-28T05:11:16;22.80;;;21.20;;
14187;SDS011;7175;51.978;5.330;2023-02-28T05:13:48;23.90;;;22.20;;
14187;SDS011;7175;51.978;5.330;2023-02-28T05:16:17;24.37;;;22.57;;
14187;SDS011;7175;51.978;5.330;2023-02-28T05:18:46;24.03;;;22.27;;
14187;SDS011;7175;51.978;5.330;2023-02-28T05:21:22;24.87;;;23.07;;
14187;SDS011;7175;51.978;5.330;2023-02-28T05:23:53;25.77;;;23.90;;
14187;SDS011;7175;51.978;5.330;2023-02-28T05:26:22;25.73;;;23.93;;
14187;SDS011;7175;51.978;5.330;2023-02-28T05:28:52;25.30;;;23.50;;
14187;SDS011;7175;51.978;5.330;2023-02-28T05:31:20;30.73;;;27.53;;
14187;SDS011;7175;51.978;5.330;2023-02-28T05:33:49;26.30;;;24.40;;
14187;SDS011;7175;51.978;5.330;2023-02-28T05:36:17;24.97;;;23.17;;
14187;SDS011;7175;51.978;5.330;2023-02-28T05:38:46;25.10;;;23.23;;
14187;SDS011;7175;51.978;5.330;2023-02-28T05:41:15;26.20;;;24.30;;
14187;SDS011;7175;51.978;5.330;2023-02-28T05:43:45;26.30;;;24.40;;
14187;SDS011;7175;51.978;5.330;2023-02-28T05:46:15;26.43;;;24.53;;
14187;SDS011;7175;51.978;5.330;2023-02-28T05:48:46;27.07;;;25.17;;
14187;SDS011;7175;51.978;5.330;2023-02-28T05:51:15;28.20;;;26.20;;
14187;SDS011;7175;51.978;5.330;2023-02-28T05:53:43;27.17;;;25.27;;
14187;SDS011;7175;51.978;5.330;2023-02-28T05:56:12;27.70;;;25.80;;
14187;SDS011;7175;51.978;5.330;2023-02-28T05:58:40;26.90;;;25.00;;
14187;SDS011;7175;51.978;5.330;2023-02-28T06:04:03;26.50;;;24.60;;
14187;SDS011;7175;51.978;5.330;2023-02-28T06:06:32;25.87;;;23.97;;
14187;SDS011;7175;51.978;5.330;2023-02-28T06:09:02;25.70;;;23.80;;
14187;SDS011;7175;51.978;5.330;2023-02-28T06:11:31;24.77;;;22.97;;
14187;SDS011;7175;51.978;5.330;2023-02-28T06:14:00;26.60;;;24.70;;
14187;SDS011;7175;51.978;5.330;2023-02-28T06:16:29;25.70;;;23.80;;
14187;SDS011;7175;51.978;5.330;2023-02-28T06:19:01;27.30;;;25.30;;
14187;SDS011;7175;51.978;5.330;2023-02-28T06:21:31;25.07;;;23.27;;
14187;SDS011;7175;51.978;5.330;2023-02-28T06:23:59;25.30;;;23.40;;
14187;SDS011;7175;51.978;5.330;2023-02-28T06:26:27;24.87;;;22.97;;
14187;SDS011;7175;51.978;5.330;2023-02-28T06:28:55;24.73;;;22.90;;
14187;SDS011;7175;51.978;5.330;2023-02-28T06:31:24;24.80;;;22.90;;
14187;SDS011;7175;51.978;5.330;2023-02-28T06:33:53;24.90;;;23.00;;
14187;SDS011;7175;51.978;5.330;2023-02-28T06:36:24;25.10;;;23.20;;
14187;SDS011;7175;51.978;5.330;2023-02-28T06:38:52;25.40;;;23.50;;
14187;SDS011;7175;51.978;5.330;2023-02-28T06:41:22;24.60;;;22.70;;
14187;SDS011;7175;51.978;5.330;2023-02-28T06:43:52;25.00;;;23.10;;
14187;SDS011;7175;51.978;5.330;2023-02-28T06:46:20;24.23;;;22.33;;
14187;SDS011;7175;51.978;5.330;2023-02-28T06:48:49;23.23;;;21.37;;
14187;SDS011;7175;51.978;5.330;2023-02-28T06:51:18;23.50;;;21.70;;
14187;SDS011;7175;51.978;5.330;2023-02-28T06:53:50;22.80;;;21.00;;
14187;SDS011;7175;51.978;5.330;2023-02-28T06:56:19;23.60;;;21.80;;
14187;SDS011;7175;51.978;5.330;2023-02-28T06:58:47;23.73;;;21.83;;
14187;SDS011;7175;51.978;5.330;2023-02-28T07:01:17;23.70;;;21.80;;
14187;SDS011;7175;51.978;5.330;2023-02-28T07:03:45;24.87;;;22.87;;
14187;SDS011;7175;51.978;5.330;2023-02-28T07:06:18;24.57;;;22.57;;
14187;SDS011;7175;51.978;5.330;2023-02-28T07:08:47;24.60;;;22.60;;
14187;SDS011;7175;51.978;5.330;2023-02-28T07:11:16;24.67;;;22.67;;
14187;SDS011;7175;51.978;5.330;2023-02-28T07:13:45;24.73;;;22.80;;
14187;SDS011;7175;51.978;5.330;2023-02-28T07:16:15;25.57;;;23.47;;
14187;SDS011;7175;51.978;5.330;2023-02-28T07:18:44;24.43;;;22.43;;
14187;SDS011;7175;51.978;5.330;2023-02-28T07:21:13;25.63;;;23.63;;
14187;SDS011;7175;51.978;5.330;2023-02-28T07:23:41;24.83;;;22.83;;
14187;SDS011;7175;51.978;5.330;2023-02-28T07:26:10;25.23;;;23.23;;
14187;SDS011;7175;51.978;5.330;2023-02-28T07:28:42;25.57;;;23.47;;
14187;SDS011;7175;51.978;5.330;2023-02-28T07:31:11;25.47;;;23.47;;
14187;SDS011;7175;51.978;5.330;2023-02-28T07:33:41;25.07;;;23.07;;
14187;SDS011;7175;51.978;5.330;2023-02-28T07:36:10;25.17;;;23.17;;
14187;SDS011;7175;51.978;5.330;2023-02-28T07:38:41;25.67;;;23.67;;
14187;SDS011;7175;51.978;5.330;2023-02-28T07:41:13;25.40;;;23.40;;
14187;SDS011;7175;51.978;5.330;2023-02-28T07:43:44;23.33;;;21.43;;
14187;SDS011;7175;51.978;5.330;2023-02-28T07:46:13;23.67;;;21.77;;
14187;SDS011;7175;51.978;5.330;2023-02-28T07:48:42;24.17;;;22.27;;
14187;SDS011;7175;51.978;5.330;2023-02-28T07:51:11;23.87;;;21.97;;
14187;SDS011;7175;51.978;5.330;2023-02-28T07:53:39;23.80;;;21.90;;
14187;SDS011;7175;51.978;5.330;2023-02-28T07:56:08;23.37;;;21.47;;
14187;SDS011;7175;51.978;5.330;2023-02-28T07:58:37;23.10;;;21.20;;
14187;SDS011;7175;51.978;5.330;2023-02-28T08:01:06;22.70;;;20.90;;
14187;SDS011;7175;51.978;5.330;2023-02-28T08:03:36;22.90;;;21.00;;
14187;SDS011;7175;51.978;5.330;2023-02-28T08:06:13;21.30;;;19.60;;
14187;SDS011;7175;51.978;5.330;2023-02-28T08:08:44;21.27;;;19.57;;
14187;SDS011;7175;51.978;5.330;2023-02-28T08:11:12;21.00;;;19.30;;
14187;SDS011;7175;51.978;5.330;2023-02-28T08:13:41;20.80;;;19.20;;
14187;SDS011;7175;51.978;5.330;2023-02-28T08:16:11;20.13;;;18.53;;
14187;SDS011;7175;51.978;5.330;2023-02-28T08:18:44;19.73;;;18.13;;
14187;SDS011;7175;51.978;5.330;2023-02-28T08:21:12;19.50;;;18.00;;
14187;SDS011;7175;51.978;5.330;2023-02-28T08:23:40;20.70;;;19.10;;
14187;SDS011;7175;51.978;5.330;2023-02-28T08:26:08;19.70;;;18.20;;
14187;SDS011;7175;51.978;5.330;2023-02-28T08:28:36;18.77;;;17.30;;
14187;SDS011;7175;51.978;5.330;2023-02-28T08:31:08;18.77;;;17.27;;
14187;SDS011;7175;51.978;5.330;2023-02-28T08:33:38;18.90;;;17.40;;
14187;SDS011;7175;51.978;5.330;2023-02-28T08:36:07;18.37;;;16.97;;
14187;SDS011;7175;51.978;5.330;2023-02-28T08:38:36;18.33;;;16.93;;
14187;SDS011;7175;51.978;5.330;2023-02-28T08:41:05;18.50;;;17.10;;
14187;SDS011;7175;51.978;5.330;2023-02-28T08:43:35;18.40;;;17.00;;
14187;SDS011;7175;51.978;5.330;2023-02-28T08:46:04;18.10;;;16.70;;
14187;SDS011;7175;51.978;5.330;2023-02-28T08:48:33;18.10;;;16.70;;
14187;SDS011;7175;51.978;5.330;2023-02-28T08:51:06;18.83;;;17.33;;
14187;SDS011;7175;51.978;5.330;2023-02-28T08:53:36;18.00;;;16.60;;
14187;SDS011;7175;51.978;5.330;2023-02-28T08:56:06;18.30;;;16.90;;
14187;SDS011;7175;51.978;5.330;2023-02-28T08:58:36;18.27;;;16.87;;
14187;SDS011;7175;51.978;5.330;2023-02-28T09:01:07;18.00;;;16.70;;
14187;SDS011;7175;51.978;5.330;2023-02-28T09:03:38;17.97;;;16.67;;
14187;SDS011;7175;51.978;5.330;2023-02-28T09:06:09;18.27;;;16.93;;
14187;SDS011;7175;51.978;5.330;2023-02-28T09:08:39;17.93;;;16.63;;
14187;SDS011;7175;51.978;5.330;2023-02-28T09:11:08;21.07;;;19.47;;
14187;SDS011;7175;51.978;5.330;2023-02-28T09:13:36;17.63;;;16.33;;
14187;SDS011;7175;51.978;5.330;2023-02-28T09:16:06;17.97;;;16.67;;
14187;SDS011;7175;51.978;5.330;2023-02-28T09:18:37;18.30;;;16.90;;
14187;SDS011;7175;51.978;5.330;2023-02-28T09:21:06;18.23;;;16.83;;
14187;SDS011;7175;51.978;5.330;2023-02-28T09:23:39;18.33;;;16.93;;
14187;SDS011;7175;51.978;5.330;2023-02-28T09:26:12;18.30;;;16.90;;
14187;SDS011;7175;51.978;5.330;2023-02-28T09:28:42;18.60;;;17.10;;
14187;SDS011;7175;51.978;5.330;2023-02-28T09:31:11;18.43;;;17.03;;
14187;SDS011;7175;51.978;5.330;2023-02-28T09:33:42;18.70;;;17.20;;
14187;SDS011;7175;51.978;5.330;2023-02-28T09:36:12;18.47;;;17.07;;
14187;SDS011;7175;51.978;5.330;2023-02-28T09:38:40;18.30;;;16.90;;
14187;SDS011;7175;51.978;5.330;2023-02-28T09:41:13;17.97;;;16.57;;
14187;SDS011;7175;51.978;5.330;2023-02-28T09:43:43;18.43;;;17.03;;
14187;SDS011;7175;51.978;5.330;2023-02-28T09:46:18;18.20;;;16.80;;
14187;SDS011;7175;51.978;5.330;2023-02-28T09:48:59;18.13;;;16.73;;
14187;SDS011;7175;51.978;5.330;2023-02-28T09:51:45;18.50;;;17.10;;
14187;SDS011;7175;51.978;5.330;2023-02-28T09:54:18;18.27;;;16.87;;
14187;SDS011;7175;51.978;5.330;2023-02-28T09:56:49;18.13;;;16.73;;
14187;SDS011;7175;51.978;5.330;2023-02-28T09:59:25;18.57;;;17.17;;
14187;SDS011;7175;51.978;5.330;2023-02-28T10:02:10;18.83;;;17.43;;
14187;SDS011;7175;51.978;5.330;2023-02-28T10:04:47;18.73;;;17.23;;
14187;SDS011;7175;51.978;5.330;2023-02-28T10:07:32;19.00;;;17.50;;
14187;SDS011;7175;51.978;5.330;2023-02-28T10:10:17;18.63;;;17.23;;
14187;SDS011;7175;51.978;5.330;2023-02-28T10:12:49;18.60;;;17.20;;
14187;SDS011;7175;51.978;5.330;2023-02-28T10:15:21;18.93;;;17.43;;
14187;SDS011;7175;51.978;5.330;2023-02-28T10:17:53;18.73;;;17.33;;
14187;SDS011;7175;51.978;5.330;2023-02-28T10:20:35;18.90;;;17.50;;
14187;SDS011;7175;51.978;5.330;2023-02-28T10:23:10;19.30;;;17.80;;
14187;SDS011;7175;51.978;5.330;2023-02-28T10:25:45;19.60;;;18.10;;
14187;SDS011;7175;51.978;5.330;2023-02-28T10:28:17;18.67;;;17.27;;
14187;SDS011;7175;51.978;5.330;2023-02-28T10:30:46;18.73;;;17.33;;
14187;SDS011;7175;51.978;5.330;2023-02-28T10:33:21;18.97;;;17.57;;
14187;SDS011;7175;51.978;5.330;2023-02-28T10:35:51;19.17;;;17.67;;
14187;SDS011;7175;51.978;5.330;2023-02-28T10:38:22;19.57;;;18.07;;
14187;SDS011;7175;51.978;5.330;2023-02-28T10:40:53;19.33;;;17.83;;
14187;SDS011;7175;51.978;5.330;2023-02-28T10:43:32;19.20;;;17.70;;
14187;SDS011;7175;51.978;5.330;2023-02-28T10:46:01;19.13;;;17.70;;
14187;SDS011;7175;51.978;5.330;2023-02-28T10:48:33;19.27;;;17.77;;
14187;SDS011;7175;51.978;5.330;2023-02-28T10:51:04;18.83;;;17.43;;
14187;SDS011;7175;51.978;5.330;2023-02-28T10:53:37;18.90;;;17.50;;
14187;SDS011;7175;51.978;5.330;2023-02-28T10:56:28;19.13;;;17.70;;
14187;SDS011;7175;51.978;5.330;2023-02-28T10:58:58;19.00;;;17.60;;
14187;SDS011;7175;51.978;5.330;2023-02-28T11:01:37;18.70;;;17.30;;
14187;SDS011;7175;51.978;5.330;2023-02-28T11:04:17;18.60;;;17.20;;
14187;SDS011;7175;51.978;5.330;2023-02-28T11:06:48;18.50;;;17.10;;
14187;SDS011;7175;51.978;5.330;2023-02-28T11:09:27;18.50;;;17.10;;
14187;SDS011;7175;51.978;5.330;2023-02-28T11:11:56;18.90;;;17.50;;
14187;SDS011;7175;51.978;5.330;2023-02-28T11:14:26;18.60;;;17.20;;
14187;SDS011;7175;51.978;5.330;2023-02-28T11:16:59;19.00;;;17.60;;
14187;SDS011;7175;51.978;5.330;2023-02-28T11:19:31;19.80;;;18.00;;
14187;SDS011;7175;51.978;5.330;2023-02-28T11:22:05;18.43;;;17.03;;
14187;SDS011;7175;51.978;5.330;2023-02-28T11:24:36;18.70;;;17.30;;
14187;SDS011;7175;51.978;5.330;2023-02-28T11:27:14;18.53;;;17.13;;
14187;SDS011;7175;51.978;5.330;2023-02-28T11:29:53;19.57;;;18.07;;
14187;SDS011;7175;51.978;5.330;2023-02-28T11:32:22;19.10;;;17.70;;
14187;SDS011;7175;51.978;5.330;2023-02-28T11:35:00;19.03;;;17.63;;
14187;SDS011;7175;51.978;5.330;2023-02-28T11:37:30;19.10;;;17.70;;
14187;SDS011;7175;51.978;5.330;2023-02-28T11:40:01;18.80;;;17.40;;
14187;SDS011;7175;51.978;5.330;2023-02-28T11:42:39;19.20;;;17.70;;
14187;SDS011;7175;51.978;5.330;2023-02-28T11:45:17;19.10;;;17.70;;
14187;SDS011;7175;51.978;5.330;2023-02-28T11:47:57;19.50;;;18.00;;
14187;SDS011;7175;51.978;5.330;2023-02-28T11:50:40;19.03;;;17.53;;
14187;SDS011;7175;51.978;5.330;2023-02-28T11:53:18;19.03;;;17.63;;
14187;SDS011;7175;51.978;5.330;2023-02-28T11:55:56;18.77;;;17.37;;
14187;SDS011;7175;51.978;5.330;2023-02-28T11:58:37;19.30;;;17.80;;
14187;SDS011;7175;51.978;5.330;2023-02-28T12:01:16;19.27;;;17.77;;
14187;SDS011;7175;51.978;5.330;2023-02-28T12:03:58;18.33;;;16.93;;
14187;SDS011;7175;51.978;5.330;2023-02-28T12:06:38;18.27;;;16.87;;
14187;SDS011;7175;51.978;5.330;2023-02-28T12:09:23;18.30;;;16.90;;
14187;SDS011;7175;51.978;5.330;2023-02-28T12:12:03;18.20;;;16.80;;
14187;SDS011;7175;51.978;5.330;2023-02-28T12:14:55;18.33;;;16.93;;
14187;SDS011;7175;51.978;5.330;2023-02-28T12:18:01;18.43;;;17.03;;
14187;SDS011;7175;51.978;5.330;2023-02-28T12:20:38;18.37;;;16.93;;
14187;SDS011;7175;51.978;5.330;2023-02-28T12:23:19;18.53;;;17.13;;
14187;SDS011;7175;51.978;5.330;2023-02-28T12:26:00;18.67;;;17.20;;
14187;SDS011;7175;51.978;5.330;2023-02-28T12:28:35;18.33;;;16.93;;
14187;SDS011;7175;51.978;5.330;2023-02-28T12:31:10;18.60;;;17.20;;
14187;SDS011;7175;51.978;5.330;2023-02-28T12:33:46;18.53;;;17.13;;
14187;SDS011;7175;51.978;5.330;2023-02-28T12:36:18;18.43;;;17.03;;
14187;SDS011;7175;51.978;5.330;2023-02-28T12:38:51;18.07;;;16.67;;
14187;SDS011;7175;51.978;5.330;2023-02-28T12:41:26;19.00;;;17.50;;
14187;SDS011;7175;51.978;5.330;2023-02-28T12:44:00;18.23;;;16.83;;
14187;SDS011;7175;51.978;5.330;2023-02-28T12:46:32;18.10;;;16.70;;
14187;SDS011;7175;51.978;5.330;2023-02-28T12:49:05;18.00;;;16.60;;
14187;SDS011;7175;51.978;5.330;2023-02-28T12:51:37;18.03;;;16.63;;
14187;SDS011;7175;51.978;5.330;2023-02-28T12:54:11;18.27;;;16.87;;
14187;SDS011;7175;51.978;5.330;2023-02-28T12:56:44;18.13;;;16.73;;
14187;SDS011;7175;51.978;5.330;2023-02-28T12:59:21;17.87;;;16.47;;
14187;SDS011;7175;51.978;5.330;2023-02-28T13:02:01;17.90;;;16.50;;
14187;SDS011;7175;51.978;5.330;2023-02-28T13:10:47;18.23;;;16.83;;
14187;SDS011;7175;51.978;5.330;2023-02-28T13:13:21;18.53;;;17.13;;
14187;SDS011;7175;51.978;5.330;2023-02-28T13:16:02;18.60;;;17.20;;
14187;SDS011;7175;51.978;5.330;2023-02-28T13:18:33;18.30;;;16.90;;
14187;SDS011;7175;51.978;5.330;2023-02-28T13:21:07;19.00;;;17.50;;
14187;SDS011;7175;51.978;5.330;2023-02-28T13:23:41;18.33;;;16.93;;
14187;SDS011;7175;51.978;5.330;2023-02-28T13:29:36;20.83;;;18.83;;
14187;SDS011;7175;51.978;5.330;2023-02-28T13:32:27;18.33;;;16.93;;
14187;SDS011;7175;51.978;5.330;2023-02-28T13:35:14;18.20;;;16.80;;
14187;SDS011;7175;51.978;5.330;2023-02-28T13:40:49;18.13;;;16.73;;
14187;SDS011;7175;51.978;5.330;2023-02-28T13:43:18;18.20;;;16.80;;
14187;SDS011;7175;51.978;5.330;2023-02-28T13:46:10;18.30;;;16.90;;
14187;SDS011;7175;51.978;5.330;2023-02-28T13:48:41;18.13;;;16.73;;
14187;SDS011;7175;51.978;5.330;2023-02-28T13:54:31;18.00;;;16.60;;
14187;SDS011;7175;51.978;5.330;2023-02-28T13:57:12;18.30;;;16.90;;
14187;SDS011;7175;51.978;5.330;2023-02-28T13:59:50;18.47;;;17.07;;
14187;SDS011;7175;51.978;5.330;2023-02-28T14:02:41;18.13;;;16.73;;
14187;SDS011;7175;51.978;5.330;2023-02-28T14:05:18;19.20;;;17.70;;
14187;SDS011;7175;51.978;5.330;2023-02-28T14:07:52;18.20;;;16.80;;
14187;SDS011;7175;51.978;5.330;2023-02-28T14:10:24;18.20;;;16.80;;
14187;SDS011;7175;51.978;5.330;2023-02-28T14:13:03;18.17;;;16.77;;
14187;SDS011;7175;51.978;5.330;2023-02-28T14:18:23;19.07;;;17.57;;
14187;SDS011;7175;51.978;5.330;2023-02-28T14:20:57;18.10;;;16.70;;
14187;SDS011;7175;51.978;5.330;2023-02-28T14:23:36;18.07;;;16.67;;
14187;SDS011;7175;51.978;5.330;2023-02-28T14:26:33;18.10;;;16.70;;
14187;SDS011;7175;51.978;5.330;2023-02-28T14:32:11;18.03;;;16.63;;
14187;SDS011;7175;51.978;5.330;2023-02-28T14:34:49;17.87;;;16.47;;
14187;SDS011;7175;51.978;5.330;2023-02-28T14:37:25;17.80;;;16.40;;
14187;SDS011;7175;51.978;5.330;2023-02-28T14:39:57;18.30;;;16.90;;
14187;SDS011;7175;51.978;5.330;2023-02-28T14:42:30;17.97;;;16.57;;
14187;SDS011;7175;51.978;5.330;2023-02-28T14:45:00;18.27;;;16.87;;
14187;SDS011;7175;51.978;5.330;2023-02-28T14:47:28;18.00;;;16.60;;
14187;SDS011;7175;51.978;5.330;2023-02-28T14:49:59;18.33;;;16.93;;
14187;SDS011;7175;51.978;5.330;2023-02-28T14:52:31;19.20;;;17.70;;
14187;SDS011;7175;51.978;5.330;2023-02-28T14:55:00;18.13;;;16.73;;
14187;SDS011;7175;51.978;5.330;2023-02-28T14:57:34;18.10;;;16.70;;
14187;SDS011;7175;51.978;5.330;2023-02-28T15:00:10;18.10;;;16.70;;
14187;SDS011;7175;51.978;5.330;2023-02-28T15:02:41;18.03;;;16.63;;
14187;SDS011;7175;51.978;5.330;2023-02-28T15:05:16;18.00;;;16.60;;
14187;SDS011;7175;51.978;5.330;2023-02-28T15:08:00;18.87;;;17.13;;
14187;SDS011;7175;51.978;5.330;2023-02-28T15:10:31;18.20;;;16.80;;
14187;SDS011;7175;51.978;5.330;2023-02-28T15:13:01;17.90;;;16.50;;
14187;SDS011;7175;51.978;5.330;2023-02-28T15:15:35;17.80;;;16.40;;
14187;SDS011;7175;51.978;5.330;2023-02-28T15:18:29;18.20;;;16.80;;
14187;SDS011;7175;51.978;5.330;2023-02-28T15:21:01;18.00;;;16.60;;
14187;SDS011;7175;51.978;5.330;2023-02-28T15:23:33;17.93;;;16.53;;
14187;SDS011;7175;51.978;5.330;2023-02-28T15:26:03;18.13;;;16.63;;
14187;SDS011;7175;51.978;5.330;2023-02-28T15:28:34;17.90;;;16.40;;
14187;SDS011;7175;51.978;5.330;2023-02-28T15:31:25;17.73;;;16.33;;
14187;SDS011;7175;51.978;5.330;2023-02-28T15:34:16;18.13;;;16.63;;
14187;SDS011;7175;51.978;5.330;2023-02-28T15:36:49;18.20;;;16.70;;
14187;SDS011;7175;51.978;5.330;2023-02-28T15:39:18;18.03;;;16.53;;
14187;SDS011;7175;51.978;5.330;2023-02-28T15:41:47;17.90;;;16.40;;
14187;SDS011;7175;51.978;5.330;2023-02-28T15:44:17;17.87;;;16.37;;